Time;durP1;ratioP1;P1;durP2;ratioP2;P2;SDS_P1;SDS_P2;PMS_P1;PMS_P2;Temp;Humidity;BMP_temperature;BMP_pressure;BME280_temperature;BME280_humidity;BME280_pressure;Samples;Min_cycle;Max_cycle;Signal;HPM_P1;HPM_P2
2021/06/24 00:01:52;;;;;;;;;;;18.70;99.90;;;;;;4999458;28;19925;-66
2021/06/24 00:04:41;;;;;;;;;;;18.70;99.90;;;;;;5010278;28;19925;-65
2021/06/24 00:07:30;;;;;;;;;;;18.70;99.90;;;;;;5012971;28;20056;-65
2021/06/24 00:10:18;;;;;;;;;;;18.70;99.90;;;;;;5011056;28;20891;-65
2021/06/24 00:16:22;;;;;;;;;;;18.50;99.90;;;;;;5002845;28;19926;-65
2021/06/24 00:19:11;;;;;;;;;;;18.30;99.90;;;;;;5010474;28;19933;-65
2021/06/24 00:21:59;;;;;;;;;;;18.30;99.90;;;;;;5011907;28;19932;-65
2021/06/24 00:24:47;;;;;;;;;;;18.20;99.90;;;;;;5011099;28;19988;-66
2021/06/24 00:27:36;;;;;;;;;;;18.20;99.90;;;;;;5012269;28;20381;-65
2021/06/24 00:30:26;;;;;;;;;;;18.20;99.90;;;;;;4990940;28;20318;-66
2021/06/24 00:33:18;;;;;;;;;;;18.20;99.90;;;;;;5011377;28;19936;-64
2021/06/24 00:36:32;;;;;;;;;;;18.20;99.90;;;;;;5011933;28;20020;-65
2021/06/24 00:39:21;;;;;;;;;;;18.30;99.90;;;;;;5011722;28;19953;-65
2021/06/24 00:42:10;;;;;;;;;;;18.30;99.90;;;;;;5011165;28;20015;-66
2021/06/24 00:45:00;;;;;;;;;;;18.30;99.90;;;;;;5022341;28;20397;-66
2021/06/24 00:47:50;;;;;;;;;;;18.40;99.90;;;;;;5014970;28;19932;-66
2021/06/24 00:50:40;;;;;;;;;;;18.50;99.90;;;;;;5009897;28;19929;-66
2021/06/24 00:53:29;;;;;;;;;;;18.60;99.90;;;;;;5018874;28;19925;-66
2021/06/24 00:56:25;;;;;;;;;;;18.50;99.90;;;;;;5013291;28;19933;-65
2021/06/24 00:59:15;;;;;;;;;;;18.50;99.90;;;;;;5016705;28;19935;-65
2021/06/24 01:02:09;;;;;;;;;;;18.40;99.90;;;;;;5010354;28;19932;-65
2021/06/24 01:05:00;;;;;;;;;;;18.30;99.90;;;;;;5005314;28;19925;-65
2021/06/24 01:07:50;;;;;;;;;;;18.20;99.90;;;;;;5003774;28;19932;-66
2021/06/24 01:10:45;;;;;;;;;;;18.10;99.90;;;;;;5016628;28;19940;-65
2021/06/24 01:13:35;;;;;;;;;;;18.00;99.90;;;;;;4998735;28;19930;-66
2021/06/24 01:16:24;;;;;;;;;;;17.90;99.90;;;;;;5011564;28;19937;-66
2021/06/24 01:19:16;;;;;;;;;;;17.90;99.90;;;;;;5010417;28;19929;-66
2021/06/24 01:22:07;;;;;;;;;;;17.90;99.90;;;;;;5018396;28;20301;-67
2021/06/24 01:24:57;;;;;;;;;;;17.80;99.90;;;;;;4991364;28;19967;-66
2021/06/24 01:27:46;;;;;;;;;;;17.80;99.90;;;;;;5013060;28;19932;-66
2021/06/24 01:30:35;;;;;;;;;;;17.70;99.90;;;;;;4999500;28;20398;-67
2021/06/24 01:33:25;;;;;;;;;;;17.60;99.90;;;;;;5001043;28;19933;-67
2021/06/24 01:36:39;;;;;;;;;;;17.60;99.90;;;;;;5008993;28;20092;-67
2021/06/24 01:39:29;;;;;;;;;;;17.50;99.90;;;;;;5019179;28;19991;-67
2021/06/24 01:42:20;;;;;;;;;;;17.50;99.90;;;;;;5021067;28;20251;-67
2021/06/24 01:45:10;;;;;;;;;;;17.40;99.90;;;;;;5008394;28;19956;-66
2021/06/24 01:51:14;;;;;;;;;;;17.50;99.90;;;;;;5010243;28;19953;-67
2021/06/24 01:54:03;;;;;;;;;;;17.50;99.90;;;;;;5007114;28;19979;-66
2021/06/24 01:56:51;;;;;;;;;;;17.40;99.90;;;;;;5007785;28;20396;-66
2021/06/24 01:59:42;;;;;;;;;;;17.40;99.90;;;;;;4998337;28;19925;-68
2021/06/24 02:02:35;;;;;;;;;;;17.50;99.90;;;;;;4992939;28;19933;-67
2021/06/24 02:05:31;;;;;;;;;;;17.50;99.90;;;;;;5008285;28;20063;-67
2021/06/24 02:08:22;;;;;;;;;;;17.70;99.90;;;;;;5006853;28;20057;-67
2021/06/24 02:11:33;;;;;;;;;;;17.60;99.90;;;;;;4996414;28;19925;-67
2021/06/24 02:14:28;;;;;;;;;;;17.60;99.90;;;;;;5006879;28;20019;-67
2021/06/24 02:17:19;;;;;;;;;;;17.60;99.90;;;;;;4985595;28;19933;-67
2021/06/24 02:20:09;;;;;;;;;;;17.60;99.90;;;;;;5004232;28;19965;-67
2021/06/24 02:23:03;;;;;;;;;;;17.60;99.90;;;;;;5009780;28;19929;-66
2021/06/24 02:25:56;;;;;;;;;;;17.60;99.90;;;;;;4993882;28;19929;-67
2021/06/24 02:28:55;;;;;;;;;;;17.60;99.90;;;;;;5008026;28;19945;-67
2021/06/24 02:31:50;;;;;;;;;;;17.60;99.90;;;;;;5001784;28;19929;-67
2021/06/24 02:35:27;;;;;;;;;;;17.50;99.90;;;;;;5007871;28;19937;-67
2021/06/24 02:38:24;;;;;;;;;;;17.50;99.90;;;;;;5008350;28;19934;-66
2021/06/24 02:41:18;;;;;;;;;;;17.50;99.90;;;;;;5009224;28;19934;-66
2021/06/24 02:44:08;;;;;;;;;;;17.50;99.90;;;;;;5008086;28;20052;-67
2021/06/24 02:46:58;;;;;;;;;;;17.50;99.90;;;;;;5008135;28;19996;-67
2021/06/24 02:50:13;;;;;;;;;;;17.50;99.90;;;;;;5010697;28;19932;-67
2021/06/24 02:53:03;;;;;;;;;;;17.50;99.90;;;;;;5017127;28;19932;-67
2021/06/24 02:55:54;;;;;;;;;;;17.50;99.90;;;;;;5016002;28;19956;-66
2021/06/24 02:59:13;;;;;;;;;;;17.50;99.90;;;;;;5001484;28;19959;-66
2021/06/24 03:02:02;;;;;;;;;;;17.50;99.90;;;;;;5005107;28;19941;-66
2021/06/24 03:04:55;;;;;;;;;;;17.50;99.90;;;;;;5013583;28;19930;-66
2021/06/24 03:07:45;;;;;;;;;;;17.50;99.90;;;;;;5014854;28;19925;-68
2021/06/24 03:10:55;;;;;;;;;;;17.50;99.90;;;;;;5012709;28;19925;-67
2021/06/24 03:13:48;;;;;;;;;;;17.50;99.90;;;;;;5015389;28;19932;-67
2021/06/24 03:16:41;;;;;;;;;;;17.50;99.90;;;;;;5008903;28;19925;-67
2021/06/24 03:19:37;;;;;;;;;;;17.50;99.90;;;;;;5010887;28;19925;-67
2021/06/24 03:22:31;;;;;;;;;;;17.50;99.90;;;;;;5015442;28;19948;-67
2021/06/24 03:25:20;;;;;;;;;;;17.50;99.90;;;;;;5014476;28;19926;-67
2021/06/24 03:28:12;;;;;;;;;;;17.50;99.90;;;;;;4992493;28;20068;-67
2021/06/24 03:31:13;;;;;;;;;;;17.50;99.90;;;;;;4994829;28;20052;-69
2021/06/24 03:34:02;;;;;;;;;;;17.40;99.90;;;;;;5013748;28;19932;-67
2021/06/24 03:36:56;;;;;;;;;;;17.50;99.90;;;;;;5010484;28;19926;-66
2021/06/24 03:39:52;;;;;;;;;;;17.50;99.90;;;;;;4999449;28;19926;-66
2021/06/24 03:42:41;;;;;;;;;;;17.60;99.90;;;;;;4999682;28;19929;-68
2021/06/24 03:45:33;;;;;;;;;;;17.60;99.90;;;;;;5023697;28;19964;-67
2021/06/24 03:48:23;;;;;;;;;;;17.60;99.90;;;;;;5032145;28;19984;-66
2021/06/24 03:51:23;;;;;;;;;;;17.60;99.90;;;;;;5033996;28;20360;-67
2021/06/24 03:54:24;;;;;;;;;;;17.60;99.90;;;;;;5032553;28;19932;-67
2021/06/24 03:57:32;;;;;;;;;;;17.60;99.90;;;;;;5031423;28;19925;-67
2021/06/24 04:00:36;;;;;;;;;;;17.70;99.90;;;;;;5024643;28;19925;-66
2021/06/24 04:03:30;;;;;;;;;;;17.70;99.90;;;;;;5029864;28;20365;-67
2021/06/24 04:06:28;;;;;;;;;;;17.70;99.90;;;;;;5030856;28;19956;-67
2021/06/24 04:09:18;;;;;;;;;;;17.60;99.90;;;;;;5030828;28;19925;-67
2021/06/24 04:12:08;;;;;;;;;;;17.70;99.90;;;;;;5020267;28;19933;-67
2021/06/24 04:15:29;;;;;;;;;;;17.80;99.90;;;;;;4998771;28;20411;-67
2021/06/24 04:18:20;;;;;;;;;;;17.80;99.90;;;;;;5028239;28;19925;-67
2021/06/24 04:21:10;;;;;;;;;;;17.90;99.90;;;;;;5018736;28;20019;-67
2021/06/24 04:23:59;;;;;;;;;;;17.90;99.90;;;;;;5030413;28;19933;-67
2021/06/24 04:26:49;;;;;;;;;;;17.90;99.90;;;;;;5038058;28;19925;-67
2021/06/24 04:29:41;;;;;;;;;;;17.90;99.90;;;;;;5043799;28;19972;-67
2021/06/24 04:32:30;;;;;;;;;;;17.90;99.90;;;;;;5019970;28;20339;-66
2021/06/24 04:35:21;;;;;;;;;;;17.90;99.90;;;;;;5032102;28;20015;-66
2021/06/24 04:38:19;;;;;;;;;;;17.90;99.90;;;;;;5030439;28;19961;-66
2021/06/24 04:41:13;;;;;;;;;;;17.90;99.90;;;;;;5011989;28;19957;-66
2021/06/24 04:44:19;;;;;;;;;;;17.90;99.90;;;;;;5036325;28;20006;-66
2021/06/24 04:47:09;;;;;;;;;;;17.90;99.90;;;;;;5025096;28;20423;-66
2021/06/24 04:49:58;;;;;;;;;;;17.90;99.90;;;;;;5018568;28;19928;-67
2021/06/24 04:53:08;;;;;;;;;;;18.00;99.90;;;;;;5028180;28;19929;-66
2021/06/24 04:56:20;;;;;;;;;;;18.00;99.90;;;;;;5033234;28;19925;-67
2021/06/24 05:02:47;;;;;;;;;;;18.00;99.90;;;;;;5020309;28;20300;-67
2021/06/24 05:05:47;;;;;;;;;;;18.10;99.90;;;;;;5032484;28;19964;-66
2021/06/24 05:08:37;;;;;;;;;;;18.10;99.90;;;;;;5031125;28;19930;-66
2021/06/24 05:11:26;;;;;;;;;;;18.10;99.90;;;;;;5031807;28;19925;-66
2021/06/24 05:14:14;;;;;;;;;;;18.20;99.90;;;;;;5027640;28;20307;-67
2021/06/24 05:17:04;;;;;;;;;;;18.30;99.90;;;;;;5026080;28;20354;-66
2021/06/24 05:19:52;;;;;;;;;;;18.40;99.90;;;;;;5025735;28;19972;-66
2021/06/24 05:22:41;;;;;;;;;;;18.50;99.90;;;;;;5031690;28;19960;-67
2021/06/24 05:25:31;;;;;;;;;;;18.50;99.90;;;;;;5032604;28;19929;-66
2021/06/24 05:28:20;;;;;;;;;;;18.50;99.90;;;;;;5032861;28;19931;-66
2021/06/24 05:31:09;;;;;;;;;;;18.50;99.90;;;;;;5026445;28;19925;-67
2021/06/24 05:33:58;;;;;;;;;;;18.50;99.90;;;;;;5031192;28;19948;-67
2021/06/24 05:36:47;;;;;;;;;;;18.50;99.90;;;;;;5031401;28;19932;-67
2021/06/24 05:39:35;;;;;;;;;;;18.50;99.90;;;;;;5031170;28;19936;-67
2021/06/24 05:42:25;;;;;;;;;;;18.50;99.90;;;;;;5023695;28;20008;-66
2021/06/24 05:45:15;;;;;;;;;;;18.50;99.90;;;;;;5021146;28;19947;-67
2021/06/24 05:48:04;;;;;;;;;;;18.60;99.90;;;;;;5027832;28;19929;-66
2021/06/24 05:51:17;;;;;;;;;;;18.60;99.90;;;;;;5032249;28;19975;-66
2021/06/24 05:54:06;;;;;;;;;;;18.60;99.90;;;;;;5032544;28;19925;-66
2021/06/24 05:56:55;;;;;;;;;;;18.50;99.90;;;;;;5027786;28;19925;-66
2021/06/24 05:59:46;;;;;;;;;;;18.40;99.90;;;;;;5020676;28;19925;-66
2021/06/24 06:02:34;;;;;;;;;;;18.40;99.90;;;;;;5029983;28;19928;-66
2021/06/24 06:05:26;;;;;;;;;;;18.40;99.90;;;;;;5032520;28;19925;-66
2021/06/24 06:08:15;;;;;;;;;;;18.40;99.90;;;;;;5030413;28;19979;-66
2021/06/24 06:11:04;;;;;;;;;;;18.50;99.90;;;;;;5033443;28;20281;-67
2021/06/24 06:13:53;;;;;;;;;;;18.50;99.90;;;;;;5029185;28;20016;-66
2021/06/24 06:16:45;;;;;;;;;;;18.60;99.90;;;;;;5017789;28;19932;-66
2021/06/24 06:19:33;;;;;;;;;;;18.50;99.90;;;;;;5017376;28;19947;-66
2021/06/24 06:22:22;;;;;;;;;;;18.40;99.90;;;;;;5031604;28;19933;-66
2021/06/24 06:25:11;;;;;;;;;;;18.30;99.90;;;;;;5037005;28;20365;-65
2021/06/24 06:27:59;;;;;;;;;;;18.40;99.90;;;;;;5037160;28;20070;-66
2021/06/24 06:30:49;;;;;;;;;;;18.30;99.90;;;;;;5029042;28;20288;-66
2021/06/24 06:33:40;;;;;;;;;;;18.40;99.90;;;;;;5037195;28;20392;-66
2021/06/24 06:36:29;;;;;;;;;;;18.40;99.90;;;;;;5035523;28;19936;-67
2021/06/24 06:39:17;;;;;;;;;;;18.40;99.90;;;;;;5033556;28;19929;-66
2021/06/24 06:42:07;;;;;;;;;;;18.40;99.90;;;;;;5034959;28;19964;-65
2021/06/24 06:44:55;;;;;;;;;;;18.50;99.90;;;;;;5030939;28;19932;-66
2021/06/24 06:47:44;;;;;;;;;;;18.40;99.90;;;;;;5034835;28;20018;-65
2021/06/24 06:50:34;;;;;;;;;;;18.50;99.90;;;;;;5035624;28;19943;-66
2021/06/24 06:53:23;;;;;;;;;;;18.60;99.90;;;;;;5034496;28;20301;-66
2021/06/24 06:56:12;;;;;;;;;;;18.60;99.90;;;;;;5033825;28;20293;-69
2021/06/24 06:59:02;;;;;;;;;;;18.70;99.90;;;;;;5029129;28;20008;-66
2021/06/24 07:02:16;;;;;;;;;;;18.70;99.90;;;;;;5029729;28;20012;-67
2021/06/24 07:05:07;;;;;;;;;;;19.50;99.90;;;;;;5035628;28;20059;-65
2021/06/24 07:07:57;;;;;;;;;;;20.70;99.90;;;;;;5038949;28;19926;-66
2021/06/24 07:10:46;;;;;;;;;;;20.80;99.90;;;;;;5043363;28;20393;-66
2021/06/24 07:13:34;;;;;;;;;;;21.40;99.90;;;;;;5036719;28;19925;-66
2021/06/24 07:16:24;;;;;;;;;;;23.40;99.90;;;;;;5038294;28;19919;-67
2021/06/24 07:19:13;;;;;;;;;;;24.70;99.90;;;;;;5040660;28;20293;-67
2021/06/24 07:22:01;;;;;;;;;;;25.90;99.90;;;;;;5035539;28;20070;-67
2021/06/24 07:24:51;;;;;;;;;;;25.80;99.90;;;;;;5039268;28;19929;-66
2021/06/24 07:27:40;;;;;;;;;;;26.80;99.90;;;;;;5036052;28;19929;-67
2021/06/24 07:30:28;;;;;;;;;;;27.10;99.90;;;;;;5010305;28;19957;-68
2021/06/24 07:33:18;;;;;;;;;;;27.20;99.90;;;;;;5029148;28;19925;-67
2021/06/24 07:36:06;;;;;;;;;;;26.80;99.90;;;;;;5033994;28;19931;-66
2021/06/24 07:38:55;;;;;;;;;;;26.50;99.90;;;;;;5040656;28;19925;-67
2021/06/24 07:42:10;;;;;;;;;;;26.80;99.90;;;;;;5035720;28;19929;-67
2021/06/24 07:44:59;;;;;;;;;;;27.70;99.90;;;;;;5032689;28;19933;-68
2021/06/24 07:47:50;;;;;;;;;;;25.90;99.90;;;;;;5030953;28;20341;-67
2021/06/24 07:50:39;;;;;;;;;;;26.40;99.90;;;;;;5020335;28;19960;-67
2021/06/24 07:53:28;;;;;;;;;;;26.50;99.90;;;;;;5032595;28;19925;-67
2021/06/24 07:56:17;;;;;;;;;;;25.80;99.90;;;;;;5032522;28;19929;-67
2021/06/24 07:59:11;;;;;;;;;;;25.20;99.90;;;;;;5033055;28;19925;-70
2021/06/24 08:02:01;;;;;;;;;;;26.90;99.90;;;;;;5026968;28;19932;-67
2021/06/24 08:04:49;;;;;;;;;;;27.40;99.90;;;;;;5033905;28;19995;-67
2021/06/24 08:07:40;;;;;;;;;;;24.80;99.90;;;;;;5033924;28;19948;-67
2021/06/24 08:10:28;;;;;;;;;;;23.60;99.90;;;;;;5027284;28;20004;-67
2021/06/24 08:13:17;;;;;;;;;;;22.70;99.90;;;;;;5033853;28;19929;-67
2021/06/24 08:16:06;;;;;;;;;;;21.70;99.90;;;;;;5029153;28;19925;-67
2021/06/24 08:18:55;;;;;;;;;;;21.60;99.90;;;;;;5032023;28;19925;-67
2021/06/24 08:21:44;;;;;;;;;;;22.90;99.90;;;;;;5033133;28;19925;-67
2021/06/24 08:24:32;;;;;;;;;;;23.10;99.90;;;;;;5028366;28;19941;-66
2021/06/24 08:27:21;;;;;;;;;;;22.20;99.90;;;;;;5029402;28;19936;-66
2021/06/24 08:30:10;;;;;;;;;;;21.70;99.90;;;;;;5024291;28;20003;-66
2021/06/24 08:33:01;;;;;;;;;;;22.30;99.90;;;;;;5018669;28;19925;-64
2021/06/24 08:35:49;;;;;;;;;;;25.00;99.90;;;;;;5032542;28;20152;-67
2021/06/24 08:38:38;;;;;;;;;;;27.50;99.90;;;;;;5037951;28;19925;-65
2021/06/24 08:41:27;;;;;;;;;;;28.20;98.80;;;;;;5038870;28;19933;-66
2021/06/24 08:44:17;;;;;;;;;;;28.80;96.30;;;;;;5026977;28;19933;-66
2021/06/24 08:47:08;;;;;;;;;;;29.80;95.10;;;;;;5004638;28;19961;-68
2021/06/24 08:50:01;;;;;;;;;;;30.30;93.30;;;;;;5026216;28;19925;-67
2021/06/24 08:52:50;;;;;;;;;;;28.20;94.30;;;;;;5014654;28;19932;-67
2021/06/24 08:55:43;;;;;;;;;;;27.00;97.80;;;;;;5019614;28;20436;-67
2021/06/24 08:58:33;;;;;;;;;;;26.10;98.90;;;;;;5011532;28;19940;-67
2021/06/24 09:01:42;;;;;;;;;;;26.00;99.90;;;;;;5007098;28;20286;-67
2021/06/24 09:04:32;;;;;;;;;;;25.90;99.90;;;;;;5023071;28;19947;-67
2021/06/24 09:07:22;;;;;;;;;;;25.30;99.90;;;;;;5021697;28;19933;-67
2021/06/24 09:10:10;;;;;;;;;;;24.10;99.90;;;;;;5027197;28;19976;-67
2021/06/24 09:13:02;;;;;;;;;;;24.90;99.90;;;;;;5024678;28;19925;-67
2021/06/24 09:15:51;;;;;;;;;;;27.80;96.50;;;;;;5007298;28;20019;-67
2021/06/24 09:18:40;;;;;;;;;;;28.10;95.90;;;;;;5020285;28;20117;-67
2021/06/24 09:21:28;;;;;;;;;;;30.30;93.70;;;;;;5016407;28;19936;-67
2021/06/24 09:24:22;;;;;;;;;;;31.70;90.70;;;;;;5018176;28;20032;-68
2021/06/24 09:27:25;;;;;;;;;;;34.80;79.40;;;;;;5009077;28;19929;-68
2021/06/24 09:30:15;;;;;;;;;;;34.70;78.70;;;;;;5012505;28;20373;-67
2021/06/24 09:33:07;;;;;;;;;;;32.90;79.60;;;;;;5021304;28;19925;-67
2021/06/24 09:35:57;;;;;;;;;;;30.40;88.00;;;;;;5019942;28;20278;-66
2021/06/24 09:38:46;;;;;;;;;;;27.60;94.00;;;;;;5026433;28;20038;-67
2021/06/24 09:41:42;;;;;;;;;;;26.30;98.30;;;;;;5025047;28;20361;-67
2021/06/24 09:44:32;;;;;;;;;;;25.30;99.90;;;;;;5018048;28;20285;-67
2021/06/24 09:47:24;;;;;;;;;;;24.50;99.90;;;;;;5011231;28;19972;-66
2021/06/24 09:50:12;;;;;;;;;;;24.00;99.90;;;;;;5025065;28;19925;-67
2021/06/24 09:53:09;;;;;;;;;;;23.70;99.90;;;;;;5024195;28;19925;-65
2021/06/24 09:56:16;;;;;;;;;;;23.60;99.90;;;;;;5021685;28;20076;-66
2021/06/24 09:59:06;;;;;;;;;;;23.30;99.90;;;;;;5013800;28;19976;-67
2021/06/24 10:01:55;;;;;;;;;;;23.70;99.90;;;;;;4999730;28;19925;-66
2021/06/24 10:04:44;;;;;;;;;;;23.80;99.90;;;;;;5005538;28;19952;-67
2021/06/24 10:07:33;;;;;;;;;;;24.10;99.90;;;;;;5001348;28;19972;-67
2021/06/24 10:10:23;;;;;;;;;;;24.40;99.90;;;;;;4996469;28;19948;-66
2021/06/24 10:13:12;;;;;;;;;;;24.70;99.90;;;;;;4995609;28;20012;-66
2021/06/24 10:16:02;;;;;;;;;;;24.60;99.90;;;;;;4999497;28;19936;-66
2021/06/24 10:18:51;;;;;;;;;;;24.50;99.90;;;;;;5001646;28;20023;-66
2021/06/24 10:21:40;;;;;;;;;;;24.80;99.90;;;;;;5024057;28;19932;-66
2021/06/24 10:24:31;;;;;;;;;;;24.50;99.90;;;;;;5022049;28;20452;-67
2021/06/24 10:27:19;;;;;;;;;;;24.10;99.90;;;;;;5028742;28;19926;-67
2021/06/24 10:30:09;;;;;;;;;;;24.00;99.90;;;;;;5020347;28;19929;-67
2021/06/24 10:33:00;;;;;;;;;;;24.00;99.90;;;;;;5014708;28;20393;-67
2021/06/24 10:35:52;;;;;;;;;;;23.90;99.90;;;;;;5016763;28;20039;-66
2021/06/24 10:38:42;;;;;;;;;;;23.80;99.90;;;;;;5016282;28;19929;-67
2021/06/24 10:41:55;;;;;;;;;;;24.40;99.90;;;;;;5020302;28;20004;-66
2021/06/24 10:44:46;;;;;;;;;;;24.80;99.90;;;;;;5024003;28;19951;-66
2021/06/24 10:47:36;;;;;;;;;;;24.50;99.90;;;;;;4996268;28;19936;-66
2021/06/24 10:50:41;;;;;;;;;;;24.80;99.90;;;;;;5008191;28;20266;-67
2021/06/24 10:53:46;;;;;;;;;;;24.80;99.90;;;;;;5000729;28;19925;-67
2021/06/24 10:56:36;;;;;;;;;;;24.60;99.90;;;;;;4998417;28;20247;-67
2021/06/24 10:59:29;;;;;;;;;;;24.50;99.90;;;;;;5009627;28;19925;-67
2021/06/24 11:02:18;;;;;;;;;;;25.20;99.90;;;;;;4993688;28;19926;-66
2021/06/24 11:05:16;;;;;;;;;;;26.20;99.90;;;;;;5007564;28;20497;-65
2021/06/24 11:08:12;;;;;;;;;;;26.40;99.90;;;;;;5013622;28;19925;-67
2021/06/24 11:11:01;;;;;;;;;;;26.00;99.90;;;;;;5004652;28;20388;-68
2021/06/24 11:13:50;;;;;;;;;;;25.60;99.90;;;;;;4995594;28;19926;-67
2021/06/24 11:16:39;;;;;;;;;;;25.60;99.90;;;;;;5007740;28;19965;-68
2021/06/24 11:19:27;;;;;;;;;;;26.40;99.90;;;;;;5015107;28;19925;-66
2021/06/24 11:22:44;;;;;;;;;;;26.70;99.90;;;;;;5020813;28;19932;-65
2021/06/24 11:26:01;;;;;;;;;;;26.50;99.90;;;;;;5028687;28;20373;-66
2021/06/24 11:28:52;;;;;;;;;;;26.20;99.90;;;;;;5030483;28;20004;-67
2021/06/24 11:31:44;;;;;;;;;;;26.40;99.90;;;;;;5003198;28;20073;-69
2021/06/24 11:34:39;;;;;;;;;;;26.80;99.90;;;;;;5009727;28;20332;-66
2021/06/24 11:37:28;;;;;;;;;;;26.50;99.90;;;;;;5004232;28;19933;-66
2021/06/24 11:40:19;;;;;;;;;;;25.90;99.90;;;;;;5002197;28;19926;-66
2021/06/24 11:43:11;;;;;;;;;;;25.40;99.90;;;;;;4993933;28;20076;-66
2021/06/24 11:46:01;;;;;;;;;;;25.60;99.90;;;;;;4995264;28;19929;-66
2021/06/24 11:48:54;;;;;;;;;;;25.60;99.90;;;;;;5017933;28;19937;-66
2021/06/24 12:04:14;;;;;;;;;;;25.70;99.90;;;;;;5032776;28;19936;-68
2021/06/24 12:07:07;;;;;;;;;;;25.40;99.90;;;;;;5017347;28;19933;-66
2021/06/24 12:09:56;;;;;;;;;;;25.60;99.90;;;;;;5020018;28;19925;-65
2021/06/24 12:12:44;;;;;;;;;;;25.90;99.90;;;;;;5017221;28;19976;-66
2021/06/24 12:15:34;;;;;;;;;;;25.80;99.90;;;;;;5009222;28;20457;-67
2021/06/24 12:18:33;;;;;;;;;;;26.00;99.90;;;;;;5003996;28;19926;-67
2021/06/24 12:21:21;;;;;;;;;;;25.90;99.90;;;;;;5000354;28;20021;-67
2021/06/24 12:24:10;;;;;;;;;;;25.80;99.90;;;;;;5009423;28;19979;-67
2021/06/24 12:27:14;;;;;;;;;;;25.70;99.90;;;;;;5006237;28;19925;-67
2021/06/24 12:30:06;;;;;;;;;;;25.70;99.90;;;;;;5005519;28;19926;-66
2021/06/24 12:32:56;;;;;;;;;;;25.90;99.90;;;;;;5007111;28;20278;-67
2021/06/24 12:35:48;;;;;;;;;;;26.20;99.90;;;;;;5012904;28;20370;-67
2021/06/24 12:38:43;;;;;;;;;;;26.60;99.60;;;;;;5013223;28;19925;-67
2021/06/24 12:41:57;;;;;;;;;;;26.40;99.70;;;;;;5021252;28;20100;-66
2021/06/24 12:44:46;;;;;;;;;;;26.30;99.20;;;;;;5007096;28;19975;-69
2021/06/24 12:47:40;;;;;;;;;;;26.10;99.30;;;;;;5012747;28;19929;-66
2021/06/24 12:50:30;;;;;;;;;;;25.90;99.50;;;;;;5015584;28;19932;-66
2021/06/24 12:53:32;;;;;;;;;;;26.10;99.60;;;;;;5016735;28;19927;-66
2021/06/24 12:56:21;;;;;;;;;;;26.40;99.90;;;;;;5015781;28;19968;-66
2021/06/24 12:59:12;;;;;;;;;;;26.60;99.60;;;;;;5012671;28;20300;-66
2021/06/24 13:02:06;;;;;;;;;;;26.30;99.90;;;;;;5005863;28;19933;-67
2021/06/24 13:04:54;;;;;;;;;;;26.30;99.90;;;;;;5012822;28;19925;-68
2021/06/24 13:07:54;;;;;;;;;;;25.90;99.90;;;;;;5012407;28;19971;-66
2021/06/24 13:10:45;;;;;;;;;;;25.70;99.90;;;;;;5013343;28;19936;-66
2021/06/24 13:13:34;;;;;;;;;;;25.40;99.90;;;;;;5015808;28;20056;-66
2021/06/24 13:16:24;;;;;;;;;;;25.40;99.90;;;;;;5013621;28;19930;-66
2021/06/24 13:19:25;;;;;;;;;;;25.30;99.90;;;;;;4992271;28;19976;-67
2021/06/24 13:22:14;;;;;;;;;;;25.30;99.90;;;;;;5011268;28;20024;-66
2021/06/24 13:25:04;;;;;;;;;;;25.40;99.90;;;;;;5014405;28;19925;-66
2021/06/24 13:28:05;;;;;;;;;;;25.20;99.90;;;;;;5018115;28;20000;-67
2021/06/24 13:30:54;;;;;;;;;;;25.20;99.90;;;;;;5006619;28;19925;-66
2021/06/24 13:33:45;;;;;;;;;;;25.10;99.90;;;;;;5014530;28;19925;-67
2021/06/24 13:36:33;;;;;;;;;;;24.90;99.90;;;;;;5007942;28;19933;-67
2021/06/24 13:39:31;;;;;;;;;;;25.10;99.90;;;;;;5011749;28;20067;-66
2021/06/24 13:42:20;;;;;;;;;;;25.10;99.90;;;;;;5008349;28;20254;-67
2021/06/24 13:45:12;;;;;;;;;;;25.50;99.90;;;;;;5028576;28;20006;-67
2021/06/24 13:48:00;;;;;;;;;;;26.00;99.90;;;;;;5043049;28;19924;-69
2021/06/24 13:51:14;;;;;;;;;;;26.40;99.90;;;;;;5044679;28;19998;-67
2021/06/24 13:54:04;;;;;;;;;;;26.10;99.50;;;;;;5038988;28;20015;-68
2021/06/24 13:56:54;;;;;;;;;;;25.90;99.90;;;;;;5052765;28;19936;-67
2021/06/24 13:59:43;;;;;;;;;;;26.00;99.70;;;;;;5066043;28;19925;-66
2021/06/24 14:02:33;;;;;;;;;;;26.00;99.60;;;;;;5055175;28;19936;-66
2021/06/24 14:05:21;;;;;;;;;;;25.90;99.60;;;;;;5054771;28;19957;-66
2021/06/24 14:08:10;;;;;;;;;;;25.70;99.40;;;;;;5047652;28;19980;-67
2021/06/24 14:10:59;;;;;;;;;;;25.40;99.80;;;;;;5043957;28;19925;-67
2021/06/24 14:13:48;;;;;;;;;;;25.00;99.90;;;;;;5036720;28;20023;-65
2021/06/24 14:16:38;;;;;;;;;;;24.90;99.90;;;;;;5028277;28;20409;-67
2021/06/24 14:19:38;;;;;;;;;;;25.00;99.90;;;;;;5038544;28;20075;-68
2021/06/24 14:22:27;;;;;;;;;;;25.40;99.90;;;;;;5035357;28;20246;-67
2021/06/24 14:25:15;;;;;;;;;;;25.90;99.90;;;;;;5030550;28;20051;-67
2021/06/24 14:28:06;;;;;;;;;;;26.50;98.70;;;;;;5038512;28;19929;-67
2021/06/24 14:30:55;;;;;;;;;;;27.00;98.20;;;;;;5022593;28;19932;-66
2021/06/24 14:33:44;;;;;;;;;;;26.60;98.00;;;;;;5030203;28;19940;-65
2021/06/24 14:36:34;;;;;;;;;;;26.20;99.20;;;;;;5034097;28;19932;-65
2021/06/24 14:39:24;;;;;;;;;;;25.80;99.90;;;;;;5030946;28;19932;-65
2021/06/24 14:42:12;;;;;;;;;;;25.20;99.90;;;;;;5035393;28;19948;-65
2021/06/24 14:45:08;;;;;;;;;;;24.80;99.90;;;;;;5035336;28;20005;-66
2021/06/24 14:47:57;;;;;;;;;;;24.60;99.90;;;;;;5034569;28;20373;-65
2021/06/24 14:50:46;;;;;;;;;;;24.50;99.90;;;;;;5033446;28;19925;-66
2021/06/24 14:54:01;;;;;;;;;;;24.40;99.90;;;;;;5038649;28;19925;-66
2021/06/24 14:56:53;;;;;;;;;;;24.10;99.90;;;;;;5038561;28;19987;-68
2021/06/24 14:59:49;;;;;;;;;;;24.60;99.90;;;;;;5036393;28;19934;-67
2021/06/24 15:02:38;;;;;;;;;;;25.00;99.90;;;;;;5033175;28;20345;-66
2021/06/24 15:05:27;;;;;;;;;;;25.20;99.90;;;;;;5036840;28;19924;-67
2021/06/24 15:08:15;;;;;;;;;;;25.10;99.90;;;;;;5034523;28;19953;-67
2021/06/24 15:11:06;;;;;;;;;;;24.60;99.90;;;;;;5019054;28;20067;-67
2021/06/24 15:13:54;;;;;;;;;;;24.20;99.90;;;;;;5032757;28;19925;-67
2021/06/24 15:16:44;;;;;;;;;;;24.10;99.90;;;;;;5027051;28;20300;-67
2021/06/24 15:19:33;;;;;;;;;;;24.10;99.90;;;;;;5032402;28;20373;-67
2021/06/24 15:22:22;;;;;;;;;;;24.20;99.90;;;;;;5034421;28;20059;-67
2021/06/24 15:25:11;;;;;;;;;;;24.30;99.90;;;;;;5034014;28;19932;-67
2021/06/24 15:28:01;;;;;;;;;;;24.20;99.90;;;;;;5036809;28;19928;-67
2021/06/24 15:30:50;;;;;;;;;;;23.80;99.90;;;;;;5011774;28;19936;-67
2021/06/24 15:33:38;;;;;;;;;;;23.90;99.90;;;;;;5033311;28;19933;-67
2021/06/24 15:36:27;;;;;;;;;;;23.90;99.90;;;;;;5021188;28;19940;-66
2021/06/24 15:39:18;;;;;;;;;;;23.70;99.90;;;;;;5016653;28;19956;-66
2021/06/24 15:42:08;;;;;;;;;;;23.70;99.90;;;;;;5023450;28;19929;-67
2021/06/24 15:44:58;;;;;;;;;;;23.60;99.90;;;;;;5017464;28;19933;-67
2021/06/24 15:47:48;;;;;;;;;;;23.50;99.90;;;;;;5023166;28;19976;-66
2021/06/24 15:50:37;;;;;;;;;;;23.40;99.90;;;;;;5023989;28;19940;-66
2021/06/24 15:53:26;;;;;;;;;;;23.20;99.90;;;;;;5017239;28;19999;-65
2021/06/24 15:56:14;;;;;;;;;;;22.60;99.90;;;;;;5022602;28;19933;-66
2021/06/24 15:59:03;;;;;;;;;;;21.70;99.90;;;;;;5025432;28;20558;-65
2021/06/24 16:01:53;;;;;;;;;;;21.30;99.90;;;;;;5024810;28;19940;-63
2021/06/24 16:04:42;;;;;;;;;;;20.60;99.90;;;;;;5031517;28;19936;-63
2021/06/24 16:07:31;;;;;;;;;;;20.10;99.90;;;;;;5018472;28;20023;-63
2021/06/24 16:10:21;;;;;;;;;;;20.00;99.90;;;;;;5031797;28;19925;-63
2021/06/24 16:13:10;;;;;;;;;;;20.00;99.90;;;;;;5037274;28;19925;-64
2021/06/24 16:15:59;;;;;;;;;;;19.90;99.90;;;;;;5017149;28;19929;-65
2021/06/24 16:18:49;;;;;;;;;;;19.80;99.90;;;;;;5037381;28;19925;-65
2021/06/24 16:21:37;;;;;;;;;;;19.60;99.90;;;;;;5030738;28;19979;-66
2021/06/24 16:24:26;;;;;;;;;;;19.40;99.90;;;;;;5033104;28;19925;-65
2021/06/24 16:27:14;;;;;;;;;;;19.20;99.90;;;;;;5027110;28;20047;-64
2021/06/24 16:30:04;;;;;;;;;;;19.10;99.90;;;;;;5021517;28;19929;-64
2021/06/24 16:32:54;;;;;;;;;;;19.10;99.90;;;;;;5021642;28;19979;-65
2021/06/24 16:35:44;;;;;;;;;;;19.20;99.90;;;;;;5032499;28;19960;-65
2021/06/24 16:38:33;;;;;;;;;;;19.20;99.90;;;;;;5032119;28;19926;-65
2021/06/24 16:41:22;;;;;;;;;;;19.30;99.90;;;;;;5031548;28;19932;-65
2021/06/24 16:44:10;;;;;;;;;;;19.20;99.90;;;;;;5030394;28;20077;-65
2021/06/24 16:46:59;;;;;;;;;;;19.20;99.90;;;;;;5021706;28;20341;-65
2021/06/24 16:49:48;;;;;;;;;;;19.20;99.90;;;;;;5034773;28;19933;-65
2021/06/24 16:52:38;;;;;;;;;;;19.30;99.90;;;;;;5030691;28;19951;-65
2021/06/24 16:55:27;;;;;;;;;;;19.50;99.90;;;;;;5038976;28;19932;-65
2021/06/24 16:58:16;;;;;;;;;;;19.80;99.90;;;;;;5029046;28;20255;-65
2021/06/24 17:01:05;;;;;;;;;;;19.80;99.90;;;;;;5026797;28;20596;-65
2021/06/24 17:03:54;;;;;;;;;;;19.80;99.90;;;;;;5029046;28;20059;-66